Time;durP1;ratioP1;P1;durP2;ratioP2;P2;SDS_P1;SDS_P2;PMS_P1;PMS_P2;Temp;Humidity;BMP_temperature;BMP_pressure;BME280_temperature;BME280_humidity;BME280_pressure;Samples;Min_cycle;Max_cycle;Signal;HPM_P1;HPM_P2
2022/01/06 00:01:52;;;;;;;4.78;1.85;;;;;;;2.90;78.39;99251.78;5024699;28;20049;-81
2022/01/06 00:04:17;;;;;;;5.68;2.00;;;;;;;2.88;77.80;99254.91;5002601;28;20041;-81
2022/01/06 00:06:43;;;;;;;5.25;2.08;;;;;;;2.88;76.73;99267.84;4999177;28;20045;-84
2022/01/06 00:09:10;;;;;;;5.10;1.70;;;;;;;2.91;75.59;99270.56;5026663;28;20041;-82
2022/01/06 00:11:36;;;;;;;4.07;1.90;;;;;;;2.89;76.80;99259.22;5018835;28;20136;-82
2022/01/06 00:14:19;;;;;;;2.40;1.73;;;;;;;2.85;77.46;99252.22;5039161;28;20124;-82
2022/01/06 00:24:46;;;;;;;4.38;1.88;;;;;;;2.87;76.60;99271.78;5027638;28;20503;-84
2022/01/06 00:27:13;;;;;;;4.05;2.25;;;;;;;2.85;76.96;99263.94;5041837;28;20099;-84
2022/01/06 00:29:38;;;;;;;4.95;1.77;;;;;;;2.88;75.62;99267.84;5026087;28;20037;-84
2022/01/06 00:32:04;;;;;;;3.88;1.80;;;;;;;2.88;76.04;99265.09;5037606;28;20096;-84
2022/01/06 00:34:30;;;;;;;5.35;2.08;;;;;;;2.79;75.81;99260.09;5071976;28;20498;-84
2022/01/06 00:36:55;;;;;;;4.80;1.92;;;;;;;2.83;77.30;99252.63;5009206;28;20486;-84
2022/01/06 00:39:26;;;;;;;2.85;1.75;;;;;;;2.79;75.98;99255.38;5043340;28;20116;-84
2022/01/06 00:41:55;;;;;;;4.97;2.10;;;;;;;2.85;77.24;99271.38;5032561;28;20076;-84
2022/01/06 00:44:21;;;;;;;4.85;1.80;;;;;;;2.81;77.23;99269.47;5014210;28;20038;-84
2022/01/06 00:46:46;;;;;;;5.03;2.20;;;;;;;2.81;76.37;99272.19;5031545;28;20124;-84
2022/01/06 00:49:11;;;;;;;6.82;2.30;;;;;;;2.83;77.12;99276.50;5014139;28;20103;-84
2022/01/06 00:51:37;;;;;;;5.70;2.00;;;;;;;2.76;76.57;99263.63;5013924;28;20026;-84
2022/01/06 00:54:02;;;;;;;5.90;2.40;;;;;;;2.80;77.38;99270.63;5038958;28;20418;-84
2022/01/06 00:56:28;;;;;;;4.13;2.25;;;;;;;2.80;77.00;99254.19;5043726;28;20097;-84
2022/01/06 00:58:53;;;;;;;5.45;2.40;;;;;;;2.76;77.63;99264.41;5049366;28;20052;-84
2022/01/06 01:01:19;;;;;;;7.05;2.33;;;;;;;2.72;77.69;99258.19;5039325;28;20573;-84
2022/01/06 01:03:45;;;;;;;6.18;2.17;;;;;;;2.75;76.82;99279.28;5050196;28;20044;-84
2022/01/06 01:06:10;;;;;;;6.93;2.40;;;;;;;2.72;78.29;99263.66;5030791;28;20049;-82
2022/01/06 01:08:38;;;;;;;4.22;2.00;;;;;;;2.72;77.53;99263.66;5019675;28;20376;-82
2022/01/06 01:11:04;;;;;;;6.88;2.58;;;;;;;2.73;77.98;99270.69;5030009;28;20044;-82
2022/01/06 01:13:32;;;;;;;5.85;2.30;;;;;;;2.67;77.81;99255.88;5042587;28;20029;-82
2022/01/06 01:16:08;;;;;;;4.15;2.08;;;;;;;2.68;78.47;99265.66;5041480;28;20055;-82
2022/01/06 01:18:33;;;;;;;4.90;2.05;;;;;;;2.74;77.18;99272.25;5053292;28;20083;-82
2022/01/06 01:20:59;;;;;;;3.72;1.95;;;;;;;2.72;77.56;99262.88;5050162;28;20068;-82
2022/01/06 01:23:25;;;;;;;4.47;1.90;;;;;;;2.66;77.44;99243.38;5031008;28;20050;-84
2022/01/06 01:25:50;;;;;;;4.70;2.00;;;;;;;2.69;77.57;99253.53;5033527;28;20304;-82
2022/01/06 01:28:16;;;;;;;3.90;1.85;;;;;;;2.76;77.16;99253.44;5020685;28;20053;-82
2022/01/06 01:33:29;;;;;;;4.68;1.90;;;;;;;2.76;75.08;99283.59;5026206;28;20037;-82
2022/01/06 01:35:55;;;;;;;5.00;2.15;;;;;;;2.88;74.97;99314.41;5043516;28;20412;-82
2022/01/06 01:38:20;;;;;;;3.58;1.58;;;;;;;2.85;74.61;99307.00;5011648;28;20065;-82
2022/01/06 01:40:46;;;;;;;3.80;1.92;;;;;;;2.81;74.74;99310.53;5017077;28;20418;-84
2022/01/06 01:43:11;;;;;;;3.90;1.80;;;;;;;2.91;74.83;99330.84;5029958;28;20065;-82
2022/01/06 01:45:45;;;;;;;4.32;2.10;;;;;;;2.89;75.55;99335.13;5035208;28;20041;-82
2022/01/06 01:48:18;;;;;;;;;;;;;;;2.90;74.56;99331.22;5050001;28;20410;-82
2022/01/06 01:50:44;;;;;;;3.13;1.65;;;;;;;2.85;75.36;99310.50;5046042;28;19939;-82
2022/01/06 01:53:10;;;;;;;4.65;1.90;;;;;;;2.91;75.01;99330.06;5010601;28;20674;-82
2022/01/06 01:55:36;;;;;;;4.38;2.10;;;;;;;2.88;74.54;99320.66;5061456;28;20033;-82
2022/01/06 01:58:02;;;;;;;8.75;1.67;;;;;;;2.91;74.57;99335.53;5012732;28;20411;-82
2022/01/06 02:03:09;;;;;;;5.00;1.77;;;;;;;2.95;73.89;99347.25;5123456;23;20082;-78
2022/01/06 02:05:37;;;;;;;4.82;1.80;;;;;;;2.98;73.59;99346.44;5010885;28;20078;-78
2022/01/06 02:08:05;;;;;;;4.88;1.77;;;;;;;3.00;72.75;99342.09;5010319;28;20101;-78
2022/01/06 02:10:31;;;;;;;5.45;1.80;;;;;;;3.03;72.77;99349.53;5010454;28;20061;-78
2022/01/06 02:13:00;;;;;;;4.28;1.77;;;;;;;3.03;72.86;99355.00;5003673;28;20095;-78
2022/01/06 02:15:25;;;;;;;4.82;1.85;;;;;;;3.04;72.13;99350.28;5010547;28;20038;-78
2022/01/06 02:17:51;;;;;;;3.50;1.50;;;;;;;3.07;71.96;99354.97;5009820;28;20049;-79
2022/01/06 02:20:19;;;;;;;5.28;2.22;;;;;;;3.10;72.25;99359.66;5011315;28;20049;-78
2022/01/06 02:22:45;;;;;;;4.03;1.63;;;;;;;3.06;72.23;99348.72;5013932;28;20491;-78
2022/01/06 02:25:31;;;;;;;4.97;1.92;;;;;;;3.07;72.78;99355.75;4995837;28;20038;-77
2022/01/06 02:28:00;;;;;;;3.63;1.67;;;;;;;3.04;72.63;99347.53;5002257;28;20045;-78
2022/01/06 02:30:26;;;;;;;3.30;1.65;;;;;;;3.05;72.53;99358.13;5013721;28;20087;-78
2022/01/06 02:32:53;;;;;;;2.70;1.23;;;;;;;3.07;72.24;99344.81;4987009;28;20041;-78
2022/01/06 02:35:21;;;;;;;3.38;1.45;;;;;;;3.07;73.26;99363.19;5018513;28;20033;-78
2022/01/06 02:37:47;;;;;;;4.18;1.63;;;;;;;3.04;73.31;99358.50;5015855;28;20124;-77
2022/01/06 02:40:22;;;;;;;3.75;1.50;;;;;;;3.08;73.32;99351.81;5011843;28;20133;-78
2022/01/06 02:42:52;;;;;;;4.53;1.70;;;;;;;3.07;73.94;99349.50;5006097;28;20077;-78
2022/01/06 02:45:18;;;;;;;3.97;1.70;;;;;;;2.99;74.03;99331.56;5014369;28;20376;-78
2022/01/06 02:47:46;;;;;;;4.93;1.70;;;;;;;2.97;74.86;99344.88;5012650;28;20061;-77
2022/01/06 02:50:12;;;;;;;4.05;2.08;;;;;;;2.97;73.58;99340.16;5012010;28;20049;-78
2022/01/06 02:52:38;;;;;;;2.55;1.60;;;;;;;3.03;72.62;99354.22;5010145;28;20045;-78
2022/01/06 02:55:09;;;;;;;4.50;1.80;;;;;;;2.95;73.61;99342.53;4998976;28;20053;-78
2022/01/06 02:57:36;;;;;;;3.92;1.58;;;;;;;3.01;74.23;99356.56;5012407;28;20041;-78
2022/01/06 03:00:04;;;;;;;3.47;1.63;;;;;;;3.00;72.88;99355.00;5012941;28;20081;-78
2022/01/06 03:02:30;;;;;;;3.22;1.40;;;;;;;2.96;73.52;99357.00;4991411;28;20126;-78
2022/01/06 03:04:55;;;;;;;2.58;1.33;;;;;;;2.97;73.85;99361.31;4992017;28;20531;-78
2022/01/06 03:07:21;;;;;;;4.85;1.80;;;;;;;2.96;73.86;99359.75;4992708;28;20038;-78
2022/01/06 03:09:53;;;;;;;4.00;1.50;;;;;;;2.95;74.32;99358.97;4992687;28;20038;-78
2022/01/06 03:12:27;;;;;;;4.57;1.92;;;;;;;2.96;73.65;99359.75;4992888;28;20536;-78
2022/01/06 03:14:52;;;;;;;3.58;1.60;;;;;;;2.94;74.46;99345.69;4992841;28;20507;-78
2022/01/06 03:17:18;;;;;;;4.60;1.60;;;;;;;2.92;74.53;99361.72;4991989;28;20034;-78
2022/01/06 03:19:45;;;;;;;4.00;1.55;;;;;;;2.92;74.41;99359.75;4991791;28;20042;-78
2022/01/06 03:22:11;;;;;;;2.78;1.58;;;;;;;2.89;74.63;99366.06;4993168;28;20035;-78
2022/01/06 03:24:36;;;;;;;5.53;1.83;;;;;;;2.91;75.21;99362.94;4992856;28;20054;-78
2022/01/06 03:27:02;;;;;;;3.10;1.65;;;;;;;2.88;75.73;99367.22;4993004;28;20057;-78
2022/01/06 03:29:28;;;;;;;3.42;1.60;;;;;;;2.87;76.08;99368.44;4991366;28;20453;-78
2022/01/06 03:31:53;;;;;;;6.50;2.20;;;;;;;2.86;75.17;99374.31;4992256;28;20407;-78
2022/01/06 03:34:19;;;;;;;3.50;1.40;;;;;;;2.85;74.38;99380.94;4991552;28;20061;-78
2022/01/06 03:36:45;;;;;;;4.35;1.95;;;;;;;2.79;74.91;99370.41;4992430;28;20046;-78
2022/01/06 03:39:10;;;;;;;5.47;1.67;;;;;;;2.78;73.81;99382.56;4987086;28;20106;-78
2022/01/06 03:41:36;;;;;;;5.75;1.67;;;;;;;2.89;73.45;99398.16;4986518;28;20034;-78
2022/01/06 03:44:01;;;;;;;3.28;1.60;;;;;;;2.87;75.60;99400.53;4991670;28;20105;-78
2022/01/06 03:46:27;;;;;;;3.60;1.65;;;;;;;2.80;75.92;99396.63;5000344;28;20050;-78
2022/01/06 03:48:52;;;;;;;5.03;1.83;;;;;;;2.83;74.36;99403.28;5002684;28;20026;-78
2022/01/06 03:51:20;;;;;;;2.80;1.50;;;;;;;2.83;74.32;99413.47;4998206;28;20051;-78
2022/01/06 03:53:47;;;;;;;6.75;1.75;;;;;;;2.81;73.70;99414.63;5004806;28;20430;-78
2022/01/06 03:56:13;;;;;;;4.40;1.70;;;;;;;2.83;74.37;99420.47;4992878;28;20125;-78
2022/01/06 03:58:40;;;;;;;4.07;1.90;;;;;;;2.79;74.22;99411.50;4992761;28;20054;-78
2022/01/06 04:01:06;;;;;;;3.38;1.52;;;;;;;2.83;73.57;99401.28;4987493;28;20049;-78
2022/01/06 04:03:32;;;;;;;2.95;1.50;;;;;;;2.80;74.26;99404.84;4990607;28;20506;-78
2022/01/06 04:05:57;;;;;;;4.90;1.70;;;;;;;2.83;74.01;99410.72;4993812;28;20054;-78
2022/01/06 04:08:23;;;;;;;5.45;1.65;;;;;;;2.85;73.94;99411.09;5012188;28;20045;-78
2022/01/06 04:10:49;;;;;;;10.50;5.72;;;;;;;2.83;74.86;99406.78;4994042;28;20038;-78
2022/01/06 04:13:14;;;;;;;10.27;6.53;;;;;;;2.76;74.93;99400.56;5011127;28;20053;-78
2022/01/06 04:15:40;;;;;;;8.23;6.65;;;;;;;2.70;75.46;99418.59;5011546;28;20042;-78
2022/01/06 04:18:05;;;;;;;5.93;3.92;;;;;;;2.74;75.81;99431.09;5010434;28;20467;-78
2022/01/06 04:20:31;;;;;;;4.68;3.20;;;;;;;2.73;76.62;99429.53;5011141;28;20046;-78
2022/01/06 04:22:56;;;;;;;7.30;4.15;;;;;;;2.72;76.31;99438.91;4993670;28;20407;-78
2022/01/06 04:25:22;;;;;;;7.30;4.10;;;;;;;2.69;77.23;99445.19;4993245;28;20072;-78
2022/01/06 04:27:48;;;;;;;6.15;3.08;;;;;;;2.63;75.92;99446.78;5011025;28;20034;-78
2022/01/06 04:30:13;;;;;;;8.18;3.10;;;;;;;2.62;78.01;99450.72;5010919;28;20048;-78
2022/01/06 04:32:39;;;;;;;3.55;1.58;;;;;;;2.58;76.40;99444.47;5011651;28;20077;-78
2022/01/06 04:35:06;;;;;;;4.95;2.03;;;;;;;2.61;76.34;99449.16;5011092;28;20036;-78
2022/01/06 04:37:32;;;;;;;3.83;2.22;;;;;;;2.59;77.53;99448.75;4993160;28;20046;-78
2022/01/06 04:39:57;;;;;;;5.05;2.47;;;;;;;2.55;77.56;99442.50;5011356;28;20083;-78
2022/01/06 04:42:23;;;;;;;5.30;2.38;;;;;;;2.58;77.57;99444.47;5010207;28;20042;-78
2022/01/06 04:44:49;;;;;;;4.57;2.25;;;;;;;2.60;77.90;99453.06;5011090;28;20041;-78
2022/01/06 04:47:14;;;;;;;5.57;2.08;;;;;;;2.60;78.63;99450.31;4993000;28;20053;-78
2022/01/06 04:49:40;;;;;;;4.43;2.28;;;;;;;2.61;78.24;99451.88;4993438;28;20037;-78
2022/01/06 04:52:05;;;;;;;5.43;2.25;;;;;;;2.58;77.89;99458.16;5011142;28;20484;-83
2022/01/06 04:54:31;;;;;;;3.53;1.90;;;;;;;2.57;78.01;99453.06;4992986;28;20246;-83
2022/01/06 04:56:56;;;;;;;4.32;1.77;;;;;;;2.60;78.83;99455.81;5010103;28;20080;-82
2022/01/06 04:59:22;;;;;;;5.20;2.00;;;;;;;2.60;77.97;99458.53;4977862;28;20046;-83
2022/01/06 05:01:47;;;;;;;4.20;1.92;;;;;;;2.60;78.39;99468.69;5009966;28;20124;-84
2022/01/06 05:04:13;;;;;;;5.40;1.80;;;;;;;2.57;78.69;99464.81;4992165;28;20380;-83
2022/01/06 05:06:38;;;;;;;5.60;2.22;;;;;;;2.57;77.98;99462.06;4991664;28;20429;-83
2022/01/06 05:09:04;;;;;;;6.07;1.95;;;;;;;2.56;78.00;99471.47;4979626;28;20113;-83
2022/01/06 05:11:30;;;;;;;4.50;2.30;;;;;;;2.56;78.25;99485.16;4991628;28;20519;-83
2022/01/06 05:13:55;;;;;;;5.38;2.53;;;;;;;2.56;78.72;99485.16;4991814;28;20042;-83
2022/01/06 05:16:21;;;;;;;3.40;1.73;;;;;;;2.55;78.35;99494.53;4993441;28;20057;-83
2022/01/06 05:18:47;;;;;;;3.90;2.25;;;;;;;2.54;78.95;99493.00;4993068;28;20069;-83
2022/01/06 05:21:12;;;;;;;6.47;1.88;;;;;;;2.56;79.43;99498.84;4995419;28;20050;-83
2022/01/06 05:23:39;;;;;;;5.10;1.80;;;;;;;2.58;78.58;99507.44;4984217;28;20129;-84
2022/01/06 05:26:05;;;;;;;3.92;2.10;;;;;;;2.56;79.12;99509.00;4973883;28;20038;-83
2022/01/06 05:28:30;;;;;;;3.97;1.80;;;;;;;2.50;78.72;99500.44;4990514;28;20043;-83
2022/01/06 05:30:56;;;;;;;3.53;1.60;;;;;;;2.48;78.88;99505.50;4991141;28;20096;-83
2022/01/06 05:33:21;;;;;;;5.13;1.90;;;;;;;2.49;78.84;99496.13;4959485;28;20105;-84
2022/01/06 05:35:47;;;;;;;4.18;1.88;;;;;;;2.54;79.37;99517.63;4991100;28;20088;-83
2022/01/06 05:38:12;;;;;;;4.97;2.00;;;;;;;2.51;79.62;99510.19;4991080;28;20039;-85
2022/01/06 05:40:38;;;;;;;4.45;2.15;;;;;;;2.46;79.72;99502.41;4990805;28;20411;-83
2022/01/06 05:43:04;;;;;;;3.15;1.80;;;;;;;2.52;79.31;99510.97;4942280;28;20047;-83
2022/01/06 05:45:29;;;;;;;4.18;2.00;;;;;;;2.50;79.54;99514.13;4971065;28;20062;-84
2022/01/06 05:47:55;;;;;;;6.05;3.22;;;;;;;2.44;79.28;99532.13;4989745;28;20046;-84
2022/01/06 05:50:21;;;;;;;10.13;4.40;;;;;;;2.49;79.44;99545.41;4986803;28;20046;-84
2022/01/06 05:52:47;;;;;;;7.88;3.28;;;;;;;2.48;80.50;99538.38;4987318;28;20054;-84
2022/01/06 05:55:13;;;;;;;6.60;2.75;;;;;;;2.48;80.59;99537.56;4991011;28;20177;-84
2022/01/06 05:57:38;;;;;;;10.68;5.45;;;;;;;2.45;80.28;99536.41;4973996;28;20117;-83
2022/01/06 06:00:07;;;;;;;8.13;4.38;;;;;;;2.47;80.14;99547.75;4993118;28;20038;-84
2022/01/06 06:02:33;;;;;;;10.25;5.05;;;;;;;2.53;79.65;99545.41;4981841;28;20042;-84
2022/01/06 06:04:59;;;;;;;7.35;3.92;;;;;;;2.43;80.64;99533.28;4993352;28;20042;-84
2022/01/06 06:07:24;;;;;;;8.38;3.35;;;;;;;2.44;80.81;99536.81;5006806;28;20045;-84
2022/01/06 06:09:51;;;;;;;7.05;3.10;;;;;;;2.52;81.01;99541.09;5004838;28;20030;-84
2022/01/06 06:12:17;;;;;;;4.93;2.70;;;;;;;2.51;81.21;99539.53;5007266;28;20052;-84
2022/01/06 06:14:43;;;;;;;4.97;2.95;;;;;;;2.48;80.57;99535.63;5000302;28;20057;-84
2022/01/06 06:17:09;;;;;;;6.72;3.67;;;;;;;2.50;81.67;99548.94;5010404;28;20038;-85
2022/01/06 06:19:34;;;;;;;5.05;3.00;;;;;;;2.47;82.41;99558.69;4991422;28;20633;-84
2022/01/06 06:22:00;;;;;;;4.70;2.50;;;;;;;2.45;82.96;99550.09;4983421;28;20551;-84
2022/01/06 06:24:26;;;;;;;3.78;2.55;;;;;;;2.50;82.79;99557.94;4989467;28;20042;-84
2022/01/06 06:26:52;;;;;;;3.47;2.17;;;;;;;2.43;82.79;99563.38;5005951;28;20046;-84
2022/01/06 06:29:18;;;;;;;5.13;2.30;;;;;;;2.37;84.43;99564.97;5009275;28;20123;-84
2022/01/06 06:31:44;;;;;;;4.55;2.10;;;;;;;2.35;83.78;99570.84;4989712;28;20354;-84
2022/01/06 06:34:10;;;;;;;3.30;1.95;;;;;;;2.33;83.81;99569.69;4988109;28;20085;-84
2022/01/06 06:36:36;;;;;;;4.03;2.17;;;;;;;2.29;84.09;99574.38;5003125;28;20053;-85
2022/01/06 06:39:02;;;;;;;6.05;2.55;;;;;;;2.34;84.32;99582.97;4987664;28;20053;-84
2022/01/06 06:41:28;;;;;;;6.30;2.33;;;;;;;2.37;85.03;99592.34;4993230;28;20042;-84
2022/01/06 06:43:53;;;;;;;4.15;1.90;;;;;;;2.26;84.54;99597.84;5011032;28;20042;-84
2022/01/06 06:46:19;;;;;;;5.30;2.90;;;;;;;2.22;85.32;99601.75;5011744;28;20590;-84
2022/01/06 06:48:44;;;;;;;5.13;2.67;;;;;;;2.19;86.12;99605.25;5011382;28;20046;-84
2022/01/06 06:51:10;;;;;;;7.15;3.08;;;;;;;2.21;85.90;99611.13;5012442;28;20046;-84
2022/01/06 06:53:35;;;;;;;6.70;3.75;;;;;;;2.16;86.63;99598.59;5010089;28;20156;-83
2022/01/06 06:56:01;;;;;;;6.53;3.88;;;;;;;2.11;86.15;99595.47;4992967;28;20041;-84
2022/01/06 06:58:28;;;;;;;8.55;4.03;;;;;;;2.17;85.34;99599.41;5010283;28;20522;-84
2022/01/06 07:00:54;;;;;;;5.95;3.80;;;;;;;2.10;85.52;99596.66;5003332;28;20041;-84
2022/01/06 07:03:19;;;;;;;7.82;4.45;;;;;;;2.12;86.31;99608.00;4991488;28;20054;-83
2022/01/06 07:05:45;;;;;;;8.45;3.72;;;;;;;2.12;86.12;99613.47;4991002;28;20047;-83
2022/01/06 07:08:10;;;;;;;7.25;3.70;;;;;;;2.17;86.70;99602.91;4991729;28;20416;-84
2022/01/06 07:10:36;;;;;;;5.80;3.25;;;;;;;2.14;86.76;99611.13;4992755;28;20039;-83
2022/01/06 07:13:02;;;;;;;5.75;3.05;;;;;;;2.17;86.04;99618.56;4992222;28;20046;-83
2022/01/06 07:15:27;;;;;;;5.78;3.17;;;;;;;2.20;86.89;99620.50;4992327;28;20078;-84
2022/01/06 07:17:53;;;;;;;5.30;2.83;;;;;;;2.21;86.61;99619.34;4992161;28;20507;-84
2022/01/06 07:20:18;;;;;;;6.78;3.78;;;;;;;2.28;86.27;99622.84;4993767;28;20105;-83
2022/01/06 07:22:44;;;;;;;5.75;3.30;;;;;;;2.31;86.14;99622.06;5003105;28;20042;-84
2022/01/06 07:25:10;;;;;;;6.32;3.70;;;;;;;2.32;85.90;99633.78;4995507;28;20522;-83
2022/01/06 07:27:35;;;;;;;6.63;4.00;;;;;;;2.38;87.22;99640.44;5013253;28;20125;-84
2022/01/06 07:30:02;;;;;;;6.30;3.88;;;;;;;2.40;87.13;99638.09;5013014;28;20057;-84
2022/01/06 07:32:28;;;;;;;7.35;4.30;;;;;;;2.40;86.65;99640.81;5013121;28;20053;-83
2022/01/06 07:34:53;;;;;;;7.47;4.40;;;;;;;2.49;86.75;99654.91;4991879;28;20054;-84
2022/01/06 07:37:19;;;;;;;6.68;3.67;;;;;;;2.58;86.42;99647.09;5008861;28;20073;-83
2022/01/06 07:39:45;;;;;;;8.30;4.57;;;;;;;2.63;86.24;99654.88;4995650;28;20045;-84
2022/01/06 07:42:11;;;;;;;8.73;4.47;;;;;;;2.66;86.50;99656.88;5013042;28;20426;-84
2022/01/06 07:44:36;;;;;;;10.38;4.88;;;;;;;2.73;87.81;99658.81;5013047;28;20038;-84
2022/01/06 07:47:02;;;;;;;7.93;4.43;;;;;;;2.77;87.43;99659.56;5012882;28;20414;-83
2022/01/06 07:49:28;;;;;;;9.45;4.90;;;;;;;2.76;88.55;99669.75;5012914;28;20049;-84
2022/01/06 07:51:54;;;;;;;7.60;4.65;;;;;;;2.83;89.24;99673.66;5012132;28;20044;-84
2022/01/06 07:54:20;;;;;;;8.15;4.85;;;;;;;2.83;90.61;99679.94;5013064;28;20093;-84
2022/01/06 07:56:46;;;;;;;8.32;5.10;;;;;;;2.88;89.25;99685.00;5012840;28;20057;-84
2022/01/06 07:59:11;;;;;;;9.50;5.10;;;;;;;2.90;88.95;99684.59;4994833;28;20085;-84
2022/01/06 08:01:37;;;;;;;10.20;6.82;;;;;;;2.94;89.22;99693.59;5012445;28;20042;-84
2022/01/06 08:04:03;;;;;;;13.52;6.63;;;;;;;2.96;89.58;99694.75;5012821;28;20046;-84
2022/01/06 08:06:28;;;;;;;9.48;5.63;;;;;;;2.95;90.09;99697.91;4995686;28;20129;-84
2022/01/06 08:08:54;;;;;;;8.52;4.95;;;;;;;2.97;90.71;99688.09;5012362;28;20482;-84
2022/01/06 08:11:20;;;;;;;8.10;5.53;;;;;;;3.04;89.97;99696.31;5012807;28;20038;-84
2022/01/06 08:13:45;;;;;;;10.85;7.35;;;;;;;3.12;90.39;99702.56;5012533;28;20061;-84
2022/01/06 08:16:11;;;;;;;8.65;5.50;;;;;;;3.13;91.50;99698.66;5012987;28;20412;-84
2022/01/06 08:18:39;;;;;;;7.43;4.78;;;;;;;3.18;91.26;99690.81;5012396;28;20038;-84
2022/01/06 08:21:05;;;;;;;15.93;9.57;;;;;;;3.19;91.32;99680.63;5012506;28;20050;-84
2022/01/06 08:23:30;;;;;;;14.68;8.63;;;;;;;3.16;91.81;99681.41;5012030;28;20042;-84
2022/01/06 08:25:56;;;;;;;10.07;5.35;;;;;;;3.14;92.66;99689.25;5012339;28;20049;-84
2022/01/06 08:28:22;;;;;;;8.23;4.97;;;;;;;3.12;92.72;99702.56;5012096;28;20311;-84
2022/01/06 08:30:48;;;;;;;8.85;4.75;;;;;;;3.10;93.30;99694.75;5012045;28;20777;-84
2022/01/06 08:33:13;;;;;;;7.72;4.65;;;;;;;3.15;93.85;99693.56;5011533;28;20050;-84
2022/01/06 08:35:39;;;;;;;6.60;4.20;;;;;;;3.19;94.21;99697.09;5011942;28;20065;-84
2022/01/06 08:38:04;;;;;;;7.07;4.43;;;;;;;3.27;93.90;99687.66;5011839;28;20434;-84
2022/01/06 08:40:31;;;;;;;7.13;5.07;;;;;;;3.32;93.77;99700.94;5012151;28;20128;-86
2022/01/06 08:42:56;;;;;;;9.93;4.90;;;;;;;3.29;93.24;99704.47;4994258;28;20045;-83
2022/01/06 08:45:22;;;;;;;8.95;5.35;;;;;;;3.33;93.34;99708.00;5011961;28;20046;-83
2022/01/06 08:47:47;;;;;;;7.15;4.97;;;;;;;3.34;93.15;99714.25;5011925;28;20029;-83
2022/01/06 08:50:16;;;;;;;6.97;5.05;;;;;;;3.36;93.40;99720.91;5011368;28;20038;-84
2022/01/06 08:52:42;;;;;;;8.75;5.50;;;;;;;3.46;93.42;99719.31;4994312;28;20077;-84
2022/01/06 08:55:10;;;;;;;6.53;4.82;;;;;;;3.53;93.64;99728.28;5011551;28;20073;-83
2022/01/06 08:57:36;;;;;;;7.05;4.88;;;;;;;3.60;92.15;99722.03;5011934;28;20042;-84
2022/01/06 09:00:05;;;;;;;6.88;4.85;;;;;;;3.66;92.10;99726.69;4993761;28;20542;-77
2022/01/06 09:02:31;;;;;;;6.65;4.90;;;;;;;3.67;91.16;99731.00;5011341;28;20137;-78
2022/01/06 09:04:59;;;;;;;6.55;4.53;;;;;;;3.76;92.01;99731.34;5011376;28;20132;-78
2022/01/06 09:07:25;;;;;;;6.90;4.60;;;;;;;3.75;91.35;99724.31;5011602;28;20547;-78
2022/01/06 09:09:50;;;;;;;5.78;3.90;;;;;;;3.74;90.76;99730.97;5011273;28;20128;-77
2022/01/06 09:12:18;;;;;;;7.75;4.15;;;;;;;3.75;90.93;99735.28;5011192;28;20052;-78
2022/01/06 09:14:46;;;;;;;7.60;4.57;;;;;;;3.88;90.95;99743.06;5011277;28;20069;-77
2022/01/06 09:17:13;;;;;;;6.60;4.30;;;;;;;3.96;90.33;99742.63;4993640;28;20511;-78
2022/01/06 09:19:38;;;;;;;10.73;5.53;;;;;;;3.94;89.46;99747.72;4993754;28;20464;-77
2022/01/06 09:22:04;;;;;;;9.30;6.28;;;;;;;3.91;90.26;99751.28;5010932;28;20113;-77
2022/01/06 09:24:29;;;;;;;9.48;6.18;;;;;;;3.90;90.01;99751.66;5011109;28;20046;-77
2022/01/06 09:26:55;;;;;;;8.70;6.10;;;;;;;3.91;90.48;99753.25;5011299;28;20048;-77
2022/01/06 09:29:20;;;;;;;11.40;6.63;;;;;;;3.98;91.03;99743.00;5010398;28;20065;-78
2022/01/06 09:31:46;;;;;;;7.97;5.35;;;;;;;3.97;89.88;99738.69;5011044;28;20054;-78
2022/01/06 09:34:12;;;;;;;9.10;5.82;;;;;;;3.95;90.67;99730.09;4993507;28;20104;-78
2022/01/06 09:36:39;;;;;;;9.88;6.03;;;;;;;3.99;90.76;99730.84;4993455;28;20116;-77
2022/01/06 09:39:06;;;;;;;11.18;7.30;;;;;;;4.06;90.69;99749.25;5010835;28;20038;-78
2022/01/06 09:41:32;;;;;;;8.07;5.85;;;;;;;4.10;91.08;99745.28;5011299;28;20042;-78
2022/01/06 09:44:00;;;;;;;8.05;5.28;;;;;;;4.08;90.15;99746.88;5011037;28;20049;-78
2022/01/06 09:46:26;;;;;;;7.18;4.38;;;;;;;3.97;89.92;99735.16;4994023;28;20042;-77
2022/01/06 09:48:57;;;;;;;7.63;4.57;;;;;;;4.01;90.30;99746.91;4993376;28;20104;-77
2022/01/06 09:51:23;;;;;;;6.93;4.50;;;;;;;3.97;90.08;99754.38;5010971;28;20141;-77
2022/01/06 09:53:49;;;;;;;7.70;4.65;;;;;;;4.00;91.02;99754.38;5010840;28;20057;-77
2022/01/06 09:56:14;;;;;;;7.50;4.93;;;;;;;4.01;91.71;99758.66;5010715;28;20030;-77
2022/01/06 09:58:40;;;;;;;7.60;4.70;;;;;;;3.99;91.89;99755.56;5010774;28;20116;-77
2022/01/06 10:01:05;;;;;;;7.35;4.78;;;;;;;3.97;92.47;99757.91;5010889;28;20038;-77
2022/01/06 10:03:36;;;;;;;8.75;5.25;;;;;;;3.97;92.80;99763.38;5010654;28;20077;-77
2022/01/06 10:06:31;;;;;;;7.78;5.65;;;;;;;3.94;93.00;99769.69;5010916;28;20129;-77
2022/01/06 10:09:04;;;;;;;8.50;5.85;;;;;;;3.98;93.02;99780.63;4970315;28;20046;-77
2022/01/06 10:11:34;;;;;;;8.93;6.50;;;;;;;3.93;92.86;99778.31;4974325;28;20034;-77
2022/01/06 10:14:10;;;;;;;11.57;8.15;;;;;;;3.91;93.42;99781.47;4991257;28;20050;-77
2022/01/06 10:16:44;;;;;;;10.27;7.13;;;;;;;3.89;93.11;99783.03;4991404;28;20054;-77
2022/01/06 10:19:11;;;;;;;12.23;7.90;;;;;;;3.98;93.14;99775.16;4991077;28;20051;-77
2022/01/06 10:21:45;;;;;;;12.18;8.40;;;;;;;4.02;93.02;99764.94;4973965;28;20057;-77
2022/01/06 10:24:16;;;;;;;11.95;7.93;;;;;;;4.06;93.94;99776.69;4973533;28;20038;-77
2022/01/06 10:26:54;;;;;;;10.25;8.02;;;;;;;4.16;93.75;99786.84;4973871;28;20563;-77
2022/01/06 10:29:20;;;;;;;14.55;9.45;;;;;;;4.23;93.98;99795.03;4990850;28;20039;-77
2022/01/06 10:31:46;;;;;;;15.30;9.15;;;;;;;4.28;93.70;99789.13;4973526;28;20035;-77
2022/01/06 10:34:12;;;;;;;9.30;6.78;;;;;;;4.33;93.28;99796.19;4973592;28;20440;-77
2022/01/06 10:36:40;;;;;;;12.32;8.30;;;;;;;4.29;93.83;99807.16;4995029;28;20084;-77
2022/01/06 10:39:08;;;;;;;11.63;8.38;;;;;;;4.35;93.66;99804.78;5010215;28;20037;-77
2022/01/06 10:41:35;;;;;;;12.48;7.25;;;;;;;4.33;93.56;99807.16;5011704;28;20505;-77
2022/01/06 10:44:01;;;;;;;8.80;6.40;;;;;;;4.29;93.48;99811.88;5014066;28;20511;-77
2022/01/06 10:46:40;;;;;;;9.32;6.85;;;;;;;4.29;92.91;99809.16;5014053;28;20093;-77
2022/01/06 10:49:14;;;;;;;8.85;6.57;;;;;;;4.30;93.59;99808.72;4979899;28;20054;-77
2022/01/06 10:51:45;;;;;;;10.57;7.20;;;;;;;4.38;93.57;99815.75;4996016;28;20038;-77
2022/01/06 10:54:17;;;;;;;8.23;6.78;;;;;;;4.47;93.42;99823.56;5013508;28;20045;-77
2022/01/06 10:56:43;;;;;;;10.98;7.97;;;;;;;4.54;92.70;99807.03;5013875;28;20042;-77
2022/01/06 10:59:09;;;;;;;12.32;8.07;;;;;;;4.60;91.79;99816.41;4995968;28;20045;-77
2022/01/06 11:01:36;;;;;;;7.60;5.10;;;;;;;4.60;90.14;99822.69;5013612;28;20491;-77
2022/01/06 11:04:03;;;;;;;10.25;6.05;;;;;;;4.61;90.25;99826.97;5013513;28;20471;-77
2022/01/06 11:06:29;;;;;;;7.57;4.88;;;;;;;4.68;91.14;99824.22;4995650;28;20058;-77
2022/01/06 11:08:55;;;;;;;7.82;5.03;;;;;;;4.75;89.13;99806.09;4996044;28;20081;-77
2022/01/06 11:12:26;;;;;;;8.60;5.70;;;;;;;4.75;88.85;99817.09;5013359;28;20101;-77
2022/01/06 11:14:20;;;;;;;13.07;7.97;;;;;;;4.73;89.45;99814.78;5013204;28;20586;-77
2022/01/06 11:16:47;;;;;;;11.15;7.13;;;;;;;4.79;89.73;99823.34;5013587;28;20046;-77
2022/01/06 11:19:12;;;;;;;8.40;6.28;;;;;;;4.83;90.34;99815.88;4995741;28;20101;-77
2022/01/06 11:21:44;;;;;;;8.38;5.78;;;;;;;4.86;90.32;99813.09;5013380;28;20491;-77
2022/01/06 11:24:15;;;;;;;8.57;5.60;;;;;;;4.82;89.39;99806.03;4979567;28;20045;-77
2022/01/06 11:26:43;;;;;;;10.70;6.25;;;;;;;4.85;88.18;99808.78;4995739;28;20084;-77
2022/01/06 11:29:09;;;;;;;11.77;6.90;;;;;;;4.87;88.18;99802.88;4995452;28;20489;-77
2022/01/06 11:31:41;;;;;;;8.02;5.95;;;;;;;4.86;88.47;99779.31;4995761;28;20506;-77
2022/01/06 11:34:15;;;;;;;10.27;5.25;;;;;;;4.86;89.20;99796.59;5012892;28;20084;-77
2022/01/06 11:36:41;;;;;;;8.18;5.53;;;;;;;4.91;88.25;99787.91;5012860;28;20034;-77
2022/01/06 11:39:08;;;;;;;11.35;7.45;;;;;;;5.01;88.55;99811.03;5012701;28;20179;-77
2022/01/06 11:41:39;;;;;;;13.75;7.72;;;;;;;4.99;86.58;99796.91;4995626;28;20105;-77
2022/01/06 11:44:25;;;;;;;14.43;8.77;;;;;;;5.09;85.63;99810.56;5011413;28;20056;-77
2022/01/06 11:46:56;;;;;;;11.07;7.75;;;;;;;5.10;85.92;99814.84;5012162;28;20229;-77
2022/01/06 11:49:39;;;;;;;11.85;7.57;;;;;;;5.20;85.97;99810.47;4994430;28;20084;-78
2022/01/06 11:52:13;;;;;;;13.07;8.32;;;;;;;5.31;86.85;99808.41;5012331;28;20050;-78
2022/01/06 11:54:53;;;;;;;10.10;7.28;;;;;;;5.36;86.40;99799.72;4994961;28;20077;-78